createdAt,value
2023-01-19T00:01:36.947Z,95856.10
2023-01-19T00:04:05.289Z,95864.59
2023-01-19T00:06:33.179Z,95860.36
2023-01-19T00:09:01.167Z,95861.20
2023-01-19T00:11:29.009Z,95859.90
2023-01-19T00:13:57.839Z,95857.77
2023-01-19T00:16:25.741Z,95853.96
2023-01-19T00:18:53.668Z,95852.42
2023-01-19T00:21:22.309Z,95855.02
2023-01-19T00:23:52.709Z,95855.65
2023-01-19T00:26:22.209Z,95854.44
2023-01-19T00:28:50.644Z,95867.90
2023-01-19T00:31:20.724Z,95864.37
2023-01-19T00:33:49.409Z,95854.95
2023-01-19T00:36:17.380Z,95850.67
2023-01-19T00:38:45.221Z,95849.30
2023-01-19T00:41:13.085Z,95862.67
2023-01-19T00:43:41.025Z,95866.89
2023-01-19T00:46:09.013Z,95864.05
2023-01-19T00:48:36.821Z,95862.55
2023-01-19T00:51:04.862Z,95862.21
2023-01-19T00:53:32.736Z,95850.04
2023-01-19T00:56:00.571Z,95851.50
2023-01-19T00:58:28.606Z,95852.50
2023-01-19T01:01:03.473Z,95848.61
2023-01-19T01:03:33.070Z,95836.46
2023-01-19T01:06:00.937Z,95835.98
2023-01-19T01:08:28.852Z,95836.70
2023-01-19T01:10:56.940Z,95818.39
2023-01-19T01:13:27.484Z,95815.80
2023-01-19T01:15:57.122Z,95814.48
2023-01-19T01:18:26.378Z,95811.23
2023-01-19T01:21:01.719Z,95814.20
2023-01-19T01:23:29.872Z,95805.97
2023-01-19T01:25:57.695Z,95803.89
2023-01-19T01:28:25.565Z,95799.46
2023-01-19T01:30:54.581Z,95799.16
2023-01-19T01:33:40.975Z,95793.92
2023-01-19T01:36:11.721Z,95790.95
2023-01-19T01:38:41.088Z,95792.40
2023-01-19T01:41:09.688Z,95786.24
2023-01-19T01:43:49.314Z,95781.59
2023-01-19T01:46:18.197Z,95778.02
2023-01-19T01:49:03.480Z,95772.42
2023-01-19T01:51:40.004Z,95774.46
2023-01-19T01:54:17.694Z,95777.23
2023-01-19T01:56:49.164Z,95785.12
2023-01-19T01:59:26.328Z,95788.51
2023-01-19T02:02:25.891Z,95787.20
2023-01-19T02:05:05.490Z,95781.46
2023-01-19T02:07:55.449Z,95773.47
2023-01-19T02:10:41.879Z,95767.48
2023-01-19T02:13:22.526Z,95758.27
2023-01-19T02:15:52.912Z,95759.67
2023-01-19T02:18:23.170Z,95759.11
2023-01-19T02:20:56.934Z,95748.12
2023-01-19T02:23:38.116Z,95747.91
2023-01-19T02:26:09.705Z,95753.30
2023-01-19T02:28:43.796Z,95752.38
2023-01-19T02:31:12.179Z,95752.80
2023-01-19T02:33:40.199Z,95762.23
2023-01-19T02:36:10.922Z,95765.92
2023-01-19T02:38:40.906Z,95770.83
2023-01-19T02:41:12.427Z,95768.30
2023-01-19T02:43:42.164Z,95764.39
2023-01-19T02:46:10.029Z,95766.20
2023-01-19T02:48:37.884Z,95766.69
2023-01-19T02:51:16.975Z,95762.23
2023-01-19T02:53:51.462Z,95749.67
2023-01-19T02:56:38.403Z,95749.79
2023-01-19T02:59:48.025Z,95751.28
2023-01-19T03:02:25.098Z,95751.39
2023-01-19T03:05:00.239Z,95745.35
2023-01-19T03:08:05.667Z,95752.63
2023-01-19T03:10:51.018Z,95748.67
2023-01-19T03:13:43.536Z,95738.49
2023-01-19T03:16:18.162Z,95739.43
2023-01-19T03:18:52.106Z,95737.48
2023-01-19T03:21:20.977Z,95742.80
2023-01-19T03:23:50.958Z,95749.77
2023-01-19T03:26:25.198Z,95756.91
2023-01-19T03:28:55.723Z,95751.07
2023-01-19T03:31:26.263Z,95748.70
2023-01-19T03:33:59.741Z,95748.38
2023-01-19T03:36:35.165Z,95746.21
2023-01-19T03:39:05.801Z,95751.52
2023-01-19T03:41:36.022Z,95750.45
2023-01-19T03:44:06.333Z,95756.11
2023-01-19T03:46:34.728Z,95758.95
2023-01-19T03:49:02.588Z,95763.92
2023-01-19T03:51:30.916Z,95767.37
2023-01-19T03:53:58.805Z,95771.75
2023-01-19T03:56:26.700Z,95768.30
2023-01-19T03:58:56.232Z,95763.33
2023-01-19T04:01:25.210Z,95763.08
2023-01-19T04:03:53.996Z,95765.80
2023-01-19T04:06:21.951Z,95763.20
2023-01-19T04:08:51.161Z,95758.91
2023-01-19T04:11:19.146Z,95745.45
2023-01-19T04:13:47.168Z,95737.21
2023-01-19T04:16:20.048Z,95732.95
2023-01-19T04:18:48.561Z,95737.55
2023-01-19T04:21:17.016Z,95735.00
2023-01-19T04:23:46.058Z,95737.48
2023-01-19T04:26:13.984Z,95742.53
2023-01-19T04:28:42.723Z,95743.23
2023-01-19T04:31:10.699Z,95751.56
2023-01-19T04:33:38.483Z,95755.75
2023-01-19T04:36:06.567Z,95755.84
2023-01-19T04:38:34.579Z,95753.02
2023-01-19T04:41:02.493Z,95749.45
2023-01-19T04:43:30.424Z,95750.76
2023-01-19T04:45:59.073Z,95758.59
2023-01-19T04:48:27.111Z,95769.77
2023-01-19T04:50:55.131Z,95776.58
2023-01-19T04:53:23.006Z,95776.43
2023-01-19T04:55:55.476Z,95779.82
2023-01-19T04:58:23.527Z,95786.33
2023-01-19T05:00:52.358Z,95791.83
2023-01-19T05:03:20.612Z,95799.80
2023-01-19T05:05:48.577Z,95801.86
2023-01-19T05:08:16.529Z,95795.80
2023-01-19T05:10:44.356Z,95797.87
2023-01-19T05:13:12.294Z,95800.98
2023-01-19T05:15:40.306Z,95798.77
2023-01-19T05:18:08.225Z,95801.80
2023-01-19T05:20:36.194Z,95808.15
2023-01-19T05:23:04.289Z,95819.84
2023-01-19T05:25:32.292Z,95834.17
2023-01-19T05:28:00.238Z,95836.82
2023-01-19T05:30:31.302Z,95839.67
2023-01-19T05:32:59.491Z,95843.15
2023-01-19T05:35:35.507Z,95847.90
2023-01-19T05:38:04.493Z,95849.02
2023-01-19T05:40:32.678Z,95852.09
2023-01-19T05:43:04.668Z,95853.77
2023-01-19T05:45:33.227Z,95861.51
2023-01-19T05:48:01.745Z,95859.05
2023-01-19T05:50:29.667Z,95855.52
2023-01-19T05:52:57.928Z,95853.41
2023-01-19T05:55:26.929Z,95850.98
2023-01-19T05:57:54.972Z,95858.09
2023-01-19T06:00:23.201Z,95854.77
2023-01-19T06:02:51.257Z,95848.84
2023-01-19T06:05:19.420Z,95843.98
2023-01-19T06:07:47.660Z,95843.41
2023-01-19T06:10:15.908Z,95844.42
2023-01-19T06:12:44.054Z,95847.04
2023-01-19T06:15:12.867Z,95846.64
2023-01-19T06:17:40.920Z,95842.55
2023-01-19T06:20:09.739Z,95844.41
2023-01-19T06:22:37.633Z,95837.31
2023-01-19T06:25:05.858Z,95832.95
2023-01-19T06:27:33.811Z,95833.84
2023-01-19T06:30:02.203Z,95836.39
2023-01-19T06:32:31.041Z,95848.92
2023-01-19T06:34:58.934Z,95854.10
2023-01-19T06:37:28.406Z,95846.16
2023-01-19T06:39:56.342Z,95832.34
2023-01-19T06:42:24.267Z,95825.02
2023-01-19T06:44:52.262Z,95826.45
2023-01-19T06:47:20.229Z,95833.52
2023-01-19T06:49:49.066Z,95835.79
2023-01-19T06:52:18.360Z,95837.93
2023-01-19T06:54:46.497Z,95837.67
2023-01-19T06:57:14.602Z,95840.34
2023-01-19T06:59:42.673Z,95829.02
2023-01-19T07:02:26.105Z,95832.81
2023-01-19T07:04:56.683Z,95833.57
2023-01-19T07:07:25.235Z,95833.10
2023-01-19T07:09:54.295Z,95825.31
2023-01-19T07:12:23.108Z,95829.11
2023-01-19T07:14:51.469Z,95822.52
2023-01-19T07:17:19.781Z,95818.98
2023-01-19T07:19:47.696Z,95814.84
2023-01-19T07:22:15.729Z,95799.84
2023-01-19T07:24:43.690Z,95805.91
2023-01-19T07:27:11.677Z,95822.40
2023-01-19T07:29:39.932Z,95831.23
2023-01-19T07:32:08.340Z,95835.83
2023-01-19T07:34:36.554Z,95829.73
2023-01-19T07:37:04.560Z,95823.74
2023-01-19T07:39:32.414Z,95827.73
2023-01-19T07:42:00.442Z,95825.61
2023-01-19T07:44:28.361Z,95822.85
2023-01-19T07:46:56.386Z,95821.23
2023-01-19T07:49:24.970Z,95830.65
2023-01-19T07:51:52.927Z,95830.08
2023-01-19T07:54:20.953Z,95836.05
2023-01-19T07:56:48.780Z,95849.34
2023-01-19T07:59:16.711Z,95862.25
2023-01-19T08:01:45.062Z,95861.67
2023-01-19T08:04:13.339Z,95865.20
2023-01-19T08:06:45.121Z,95864.09
2023-01-19T08:09:13.363Z,95861.16
2023-01-19T08:11:41.187Z,95856.60
2023-01-19T08:14:09.240Z,95850.48
2023-01-19T08:16:37.306Z,95848.48
2023-01-19T08:19:05.724Z,95851.15
2023-01-19T08:21:33.855Z,95840.22
2023-01-19T08:24:02.205Z,95837.36
2023-01-19T08:26:32.991Z,95849.42
2023-01-19T08:29:03.599Z,95845.05
2023-01-19T08:31:32.023Z,95839.54
2023-01-19T08:34:00.049Z,95838.18
2023-01-19T08:36:27.943Z,95831.81
2023-01-19T08:38:55.847Z,95830.27
2023-01-19T08:41:23.773Z,95826.85
2023-01-19T08:43:51.923Z,95824.47
2023-01-19T08:46:21.923Z,95830.20
2023-01-19T08:48:50.532Z,95826.02
2023-01-19T08:51:19.252Z,95826.41
2023-01-19T08:53:47.562Z,95826.05
2023-01-19T08:56:15.544Z,95827.26
2023-01-19T08:58:46.727Z,95825.08
2023-01-19T09:01:18.672Z,95823.58
2023-01-19T09:03:47.090Z,95828.16
2023-01-19T09:06:19.939Z,95821.66
2023-01-19T09:08:48.270Z,95815.23
2023-01-19T09:11:17.605Z,95813.64
2023-01-19T09:13:46.205Z,95818.48
2023-01-19T09:16:15.954Z,95823.35
2023-01-19T09:18:45.792Z,95817.73
2023-01-19T09:21:13.967Z,95815.47
2023-01-19T09:23:42.298Z,95806.33
2023-01-19T09:26:10.557Z,95802.31
2023-01-19T09:28:38.586Z,95805.50
2023-01-19T09:31:08.650Z,95816.84
2023-01-19T09:33:36.736Z,95814.44
2023-01-19T09:36:04.899Z,95811.10
2023-01-19T09:38:33.121Z,95814.02
2023-01-19T09:41:01.283Z,95817.60
2023-01-19T09:43:41.624Z,95822.98
2023-01-19T09:46:38.982Z,95823.02
2023-01-19T09:49:21.586Z,95826.44
2023-01-19T09:51:51.017Z,95827.11
2023-01-19T09:54:54.503Z,95821.09
2023-01-19T09:57:25.212Z,95811.73
2023-01-19T09:59:58.082Z,95797.11
2023-01-19T10:02:25.852Z,95789.64
2023-01-19T10:05:02.893Z,95784.77
2023-01-19T10:07:39.594Z,95783.42
2023-01-19T10:10:17.827Z,95787.03
2023-01-19T10:13:10.643Z,95784.88
2023-01-19T10:15:56.730Z,95796.75
2023-01-19T10:18:31.098Z,95798.86
2023-01-19T10:21:22.173Z,95796.91
2023-01-19T10:24:17.078Z,95795.85
2023-01-19T10:26:52.589Z,95790.58
2023-01-19T10:29:37.578Z,95787.38
2023-01-19T10:32:11.824Z,95787.27
2023-01-19T10:34:50.603Z,95776.94
2023-01-19T10:37:18.505Z,95773.71
2023-01-19T10:39:52.556Z,95778.35
2023-01-19T10:42:20.808Z,95779.13
2023-01-19T10:44:50.050Z,95780.05
2023-01-19T10:47:20.967Z,95772.74
2023-01-19T10:52:37.333Z,95781.31
2023-01-19T10:55:08.253Z,95783.56
2023-01-19T10:57:41.113Z,95781.85
2023-01-19T11:00:40.752Z,95781.88
2023-01-19T11:03:31.523Z,95785.61
2023-01-19T11:06:21.337Z,95790.60
2023-01-19T11:08:51.907Z,95790.89
2023-01-19T11:11:21.592Z,95790.50
2023-01-19T11:14:11.422Z,95788.15
2023-01-19T11:16:40.096Z,95786.70
2023-01-19T11:19:19.752Z,95783.66
2023-01-19T11:21:48.049Z,95794.55
2023-01-19T11:24:16.690Z,95784.38
2023-01-19T11:26:48.277Z,95783.04
2023-01-19T11:29:23.851Z,95789.02
2023-01-19T11:31:53.320Z,95791.80
2023-01-19T11:34:32.339Z,95785.41
2023-01-19T11:37:18.426Z,95775.73
2023-01-19T11:39:51.736Z,95778.96
2023-01-19T11:42:20.926Z,95776.66
2023-01-19T11:45:03.285Z,95773.25
2023-01-19T11:47:43.243Z,95772.54
2023-01-19T11:50:33.777Z,95772.09
2023-01-19T11:53:25.520Z,95775.48
2023-01-19T11:55:59.840Z,95782.30
2023-01-19T11:58:27.918Z,95779.06
2023-01-19T12:01:04.102Z,95781.86
2023-01-19T12:03:41.711Z,95780.03
2023-01-19T12:06:14.732Z,95787.19
2023-01-19T12:08:50.138Z,95792.21
2023-01-19T12:11:24.417Z,95792.66
2023-01-19T12:13:55.341Z,95800.15
2023-01-19T12:16:27.146Z,95805.42
2023-01-19T12:19:12.589Z,95807.92
2023-01-19T12:21:41.751Z,95809.34
2023-01-19T12:24:17.026Z,95807.74
2023-01-19T12:26:54.248Z,95797.83
2023-01-19T12:29:26.320Z,95808.46
2023-01-19T12:32:20.180Z,95809.90
2023-01-19T12:34:50.215Z,95821.15
2023-01-19T12:37:41.604Z,95821.25
2023-01-19T12:40:18.829Z,95829.19
2023-01-19T12:42:51.451Z,95831.00
2023-01-19T12:45:25.807Z,95828.02
2023-01-19T12:47:54.801Z,95835.67
2023-01-19T12:50:25.930Z,95844.65
2023-01-19T12:52:58.605Z,95852.71
2023-01-19T12:55:37.917Z,95854.93
2023-01-19T12:58:18.616Z,95850.94
2023-01-19T13:00:49.089Z,95857.98
2023-01-19T13:03:17.033Z,95867.61
2023-01-19T13:05:54.729Z,95868.55
2023-01-19T13:08:29.919Z,95880.44
2023-01-19T13:11:01.995Z,95881.75
2023-01-19T13:13:32.183Z,95877.91
2023-01-19T13:16:20.130Z,95861.40
2023-01-19T13:18:55.785Z,95844.64
2023-01-19T13:21:39.697Z,95834.69
2023-01-19T13:24:22.409Z,95842.30
2023-01-19T13:26:50.362Z,95850.30
2023-01-19T13:29:33.114Z,95853.54
2023-01-19T13:32:05.236Z,95859.67
2023-01-19T13:34:42.525Z,95863.56
2023-01-19T13:37:21.685Z,95860.09
2023-01-19T13:39:53.914Z,95849.50
2023-01-19T13:42:36.148Z,95852.46
2023-01-19T13:45:18.691Z,95861.10
2023-01-19T13:47:48.833Z,95870.23
2023-01-19T13:50:22.542Z,95867.02
2023-01-19T13:52:53.904Z,95865.66
2023-01-19T13:55:23.092Z,95862.05
2023-01-19T13:57:52.124Z,95865.91
2023-01-19T14:00:24.295Z,95871.95
2023-01-19T14:03:01.282Z,95870.64
2023-01-19T14:05:37.985Z,95872.91
2023-01-19T14:08:11.417Z,95884.10
2023-01-19T14:10:45.867Z,95884.05
2023-01-19T14:13:30.936Z,95889.19
2023-01-19T14:16:08.025Z,95895.80
2023-01-19T14:18:36.756Z,95898.48
2023-01-19T14:21:08.286Z,95898.80
2023-01-19T14:23:48.911Z,95894.86
2023-01-19T14:26:40.203Z,95902.41
2023-01-19T14:29:40.848Z,95910.02
2023-01-19T14:32:17.833Z,95909.85
2023-01-19T14:35:08.110Z,95919.11
2023-01-19T14:37:37.939Z,95920.61
2023-01-19T14:40:12.387Z,95916.50
2023-01-19T14:42:49.880Z,95916.99
2023-01-19T14:45:20.897Z,95917.21
2023-01-19T14:48:00.503Z,95917.77
2023-01-19T14:50:34.126Z,95914.62
2023-01-19T14:53:17.629Z,95912.40
2023-01-19T14:55:50.152Z,95911.02
2023-01-19T14:58:24.622Z,95908.66
2023-01-19T15:00:56.960Z,95901.76
2023-01-19T15:03:42.909Z,95901.02
2023-01-19T15:06:16.838Z,95907.41
2023-01-19T15:08:46.518Z,95912.88
2023-01-19T15:11:29.891Z,95920.70
2023-01-19T15:13:59.152Z,95923.41
2023-01-19T15:16:29.943Z,95917.33
2023-01-19T15:19:00.956Z,95922.17
2023-01-19T15:21:28.922Z,95927.60
2023-01-19T15:24:00.399Z,95931.77
2023-01-19T15:26:28.445Z,95935.87
2023-01-19T15:28:56.674Z,95940.92
2023-01-19T15:31:45.044Z,95940.41
2023-01-19T15:34:14.635Z,95953.80
2023-01-19T15:36:42.799Z,95950.30
2023-01-19T15:39:10.877Z,95958.27
2023-01-19T15:41:40.048Z,95968.79
2023-01-19T15:44:10.783Z,95970.27
2023-01-19T15:46:39.001Z,95976.70
2023-01-19T15:49:09.906Z,95979.09
2023-01-19T15:51:38.250Z,95996.39
2023-01-19T15:54:06.189Z,96003.92
2023-01-19T15:56:34.074Z,96010.39
2023-01-19T15:59:02.126Z,96015.87
2023-01-19T16:01:32.346Z,96020.42
2023-01-19T16:04:06.260Z,96025.63
2023-01-19T16:06:34.339Z,96025.55
2023-01-19T16:09:03.916Z,96033.39
2023-01-19T16:11:34.335Z,96043.67
2023-01-19T16:14:02.751Z,96046.65
2023-01-19T16:16:30.674Z,96051.36
2023-01-19T16:18:58.606Z,96059.30
2023-01-19T16:21:26.918Z,96063.91
2023-01-19T16:23:55.596Z,96062.78
2023-01-19T16:26:29.323Z,96068.77
2023-01-19T16:28:58.871Z,96080.35
2023-01-19T16:31:27.495Z,96084.66
2023-01-19T16:33:55.636Z,96084.00
2023-01-19T16:36:30.613Z,96091.58
2023-01-19T16:39:04.982Z,96099.87
2023-01-19T16:41:37.004Z,96108.14
2023-01-19T16:44:06.297Z,96102.27
2023-01-19T16:46:40.261Z,96087.11
2023-01-19T16:49:19.112Z,96061.19
2023-01-19T16:51:47.682Z,96050.52
2023-01-19T16:54:21.247Z,96066.13
2023-01-19T16:56:49.592Z,96071.27
2023-01-19T16:59:18.719Z,96056.15
2023-01-19T17:01:47.165Z,96037.61
2023-01-19T17:04:14.999Z,96040.32
2023-01-19T17:06:42.932Z,96049.14
2023-01-19T17:09:11.452Z,96060.77
2023-01-19T17:11:42.906Z,96077.49
2023-01-19T17:14:17.509Z,96082.63
2023-01-19T17:16:45.394Z,96083.08
2023-01-19T17:19:19.582Z,96093.77
2023-01-19T17:21:49.178Z,96093.75
2023-01-19T17:24:17.824Z,96093.17
2023-01-19T17:26:48.601Z,96095.07
2023-01-19T17:29:17.483Z,96095.48
2023-01-19T17:31:46.794Z,96101.63
2023-01-19T17:34:14.756Z,96106.21
2023-01-19T17:36:42.604Z,96107.14
2023-01-19T17:39:14.880Z,96107.67
2023-01-19T17:41:42.905Z,96115.30
2023-01-19T17:44:11.703Z,96124.92
2023-01-19T17:46:39.924Z,96131.95
2023-01-19T17:49:08.258Z,96130.63
2023-01-19T17:51:36.294Z,96126.48
2023-01-19T17:54:04.767Z,96135.39
2023-01-19T17:56:36.918Z,96146.77
2023-01-19T17:59:06.602Z,96154.02
2023-01-19T18:01:38.266Z,96156.33
2023-01-19T18:04:07.604Z,96145.54
2023-01-19T18:06:36.394Z,96149.16
2023-01-19T18:09:06.924Z,96159.91
2023-01-19T18:11:35.493Z,96165.23
2023-01-19T18:14:03.515Z,96163.07
2023-01-19T18:16:32.522Z,96169.30
2023-01-19T18:19:00.480Z,96175.56
2023-01-19T18:21:28.915Z,96178.41
2023-01-19T18:24:02.416Z,96180.12
2023-01-19T18:26:32.079Z,96185.35
2023-01-19T18:29:00.431Z,96183.90
2023-01-19T18:31:28.375Z,96183.50
2023-01-19T18:33:56.510Z,96192.44
2023-01-19T18:36:24.490Z,96194.69
2023-01-19T18:38:52.418Z,96200.17
2023-01-19T18:41:21.834Z,96211.49
2023-01-19T18:43:49.947Z,96216.56
2023-01-19T18:46:19.119Z,96222.36
2023-01-19T18:48:47.081Z,96231.28
2023-01-19T18:51:16.528Z,96234.42
2023-01-19T18:53:45.123Z,96230.85
2023-01-19T18:56:15.719Z,96229.29
2023-01-19T18:58:44.756Z,96231.83
2023-01-19T19:01:20.615Z,96232.65
2023-01-19T19:03:49.132Z,96221.33
2023-01-19T19:06:20.563Z,96218.98
2023-01-19T19:08:50.322Z,96227.85
2023-01-19T19:11:19.880Z,96229.77
2023-01-19T19:14:02.062Z,96225.48
2023-01-19T19:16:30.470Z,96224.27
2023-01-19T19:18:59.695Z,96216.42
2023-01-19T19:21:27.679Z,96209.08
2023-01-19T19:23:57.221Z,96197.66
2023-01-19T19:26:28.048Z,96193.03
2023-01-19T19:28:56.573Z,96196.04
2023-01-19T19:31:26.141Z,96197.54
2023-01-19T19:33:56.053Z,96202.94
2023-01-19T19:36:25.663Z,96207.31
2023-01-19T19:38:53.805Z,96211.05
2023-01-19T19:41:27.062Z,96213.55
2023-01-19T19:43:55.837Z,96220.04
2023-01-19T19:46:24.879Z,96223.34
2023-01-19T19:48:54.036Z,96222.99
2023-01-19T19:51:23.466Z,96227.80
2023-01-19T19:53:53.101Z,96229.85
2023-01-19T19:56:22.876Z,96226.02
2023-01-19T19:58:53.467Z,96223.75
2023-01-19T20:01:27.243Z,96222.95
2023-01-19T20:03:57.168Z,96230.09
2023-01-19T20:06:26.625Z,96225.56
2023-01-19T20:08:56.323Z,96222.29
2023-01-19T20:11:27.634Z,96225.92
2023-01-19T20:13:55.628Z,96222.61
2023-01-19T20:16:24.464Z,96222.29
2023-01-19T20:18:56.629Z,96225.17
2023-01-19T20:21:25.936Z,96223.42
2023-01-19T20:23:55.415Z,96223.95
2023-01-19T20:26:27.183Z,96229.16
2023-01-19T20:28:59.733Z,96233.23
2023-01-19T20:31:29.907Z,96233.85
2023-01-19T20:34:00.612Z,96239.30
2023-01-19T20:36:29.009Z,96244.27
2023-01-19T20:38:57.365Z,96245.61
2023-01-19T20:41:26.593Z,96247.91
2023-01-19T20:43:55.151Z,96254.27
2023-01-19T20:46:23.120Z,96265.05
2023-01-19T20:48:53.616Z,96270.89
2023-01-19T20:51:23.079Z,96274.67
2023-01-19T20:53:51.108Z,96277.39
2023-01-19T20:56:19.040Z,96278.71
2023-01-19T20:58:46.987Z,96275.42
2023-01-19T21:01:24.026Z,96282.28
2023-01-19T21:03:52.309Z,96289.73
2023-01-19T21:06:21.483Z,96289.13
2023-01-19T21:08:52.207Z,96288.10
2023-01-19T21:11:21.418Z,96290.73
2023-01-19T21:13:51.383Z,96286.49
2023-01-19T21:16:19.282Z,96278.61
2023-01-19T21:18:47.220Z,96277.88
2023-01-19T21:21:28.875Z,96281.27
2023-01-19T21:23:59.447Z,96285.22
2023-01-19T21:26:29.931Z,96288.72
2023-01-19T21:28:59.240Z,96291.29
2023-01-19T21:31:28.340Z,96290.52
2023-01-19T21:33:59.919Z,96288.83
2023-01-19T21:36:27.790Z,96294.77
2023-01-19T21:39:00.377Z,96315.08
2023-01-19T21:41:30.059Z,96319.27
2023-01-19T21:43:59.989Z,96320.17
2023-01-19T21:46:33.118Z,96309.27
2023-01-19T21:49:07.042Z,96306.15
2023-01-19T21:51:36.989Z,96306.80
2023-01-19T21:54:06.696Z,96306.13
2023-01-19T21:56:37.905Z,96302.55
2023-01-19T21:59:06.084Z,96305.29
2023-01-19T22:01:35.065Z,96313.78
2023-01-19T22:04:04.286Z,96323.52
2023-01-19T22:06:32.266Z,96328.09
2023-01-19T22:09:03.002Z,96321.05
2023-01-19T22:11:31.435Z,96311.55
2023-01-19T22:14:02.499Z,96306.01
2023-01-19T22:16:31.150Z,96299.55
2023-01-19T22:19:01.977Z,96291.59
2023-01-19T22:21:35.886Z,96292.10
2023-01-19T22:24:04.968Z,96289.27
2023-01-19T22:26:34.377Z,96290.30
2023-01-19T22:29:04.910Z,96285.50
2023-01-19T22:31:33.007Z,96283.31
2023-01-19T22:34:00.885Z,96281.82
2023-01-19T22:36:31.448Z,96283.36
2023-01-19T22:39:01.606Z,96285.72
2023-01-19T22:41:30.412Z,96285.77
2023-01-19T22:44:04.190Z,96281.88
2023-01-19T22:46:33.973Z,96281.59
2023-01-19T22:49:01.843Z,96278.30
2023-01-19T22:51:31.903Z,96271.78
2023-01-19T22:54:00.100Z,96259.57
2023-01-19T22:56:32.785Z,96252.39
2023-01-19T22:59:01.322Z,96250.84
2023-01-19T23:01:33.561Z,96256.38
2023-01-19T23:04:02.684Z,96265.83
2023-01-19T23:06:32.575Z,96280.77
2023-01-19T23:09:05.026Z,96291.05
2023-01-19T23:11:39.364Z,96293.08
2023-01-19T23:14:09.765Z,96292.16
2023-01-19T23:16:37.684Z,96292.55
2023-01-19T23:19:08.229Z,96281.16
2023-01-19T23:21:36.972Z,96278.41
2023-01-19T23:24:05.119Z,96283.15
2023-01-19T23:26:38.323Z,96279.49
2023-01-19T23:29:14.235Z,96275.80
2023-01-19T23:31:47.643Z,96274.96
2023-01-19T23:34:16.272Z,96276.39
2023-01-19T23:36:45.156Z,96271.48
2023-01-19T23:39:21.454Z,96261.69
2023-01-19T23:41:50.251Z,96257.96
2023-01-19T23:44:18.519Z,96268.54
2023-01-19T23:46:46.403Z,96275.52
2023-01-19T23:49:14.496Z,96279.54
2023-01-19T23:51:42.711Z,96277.36
2023-01-19T23:54:12.254Z,96273.58
2023-01-19T23:56:42.586Z,96275.81
2023-01-19T23:59:13.444Z,96275.60
